Dornoch Airfield

GB-DOC · Scotland, United Kingdom

METAR history GB-DOC · Dornoch Airfield

Below you see METARs of the last few days. Select a year to browse through older METARs, from the year 2007 onwards.

December 3, 2022

Time Code Weather Temp. Visibility Ceiling Wind METAR/SPECI
11:20
V
8 °C 10 km+ 3,300 ft Var Var 1 kt METAR EGPE 031120Z VRB01KT 9999 -SHRA FEW015 BKN033 08/04 Q1027
10:50
V
7 °C 10 km+ 3,400 ft Var Var 1 kt METAR EGPE 031050Z VRB01KT 9999 -SHRA FEW015 BKN034 07/05 Q1027
10:20
V
7 °C 10 km+ 3,300 ft Var Var 2 kt METAR EGPE 031020Z VRB02KT 9999 -SHRA FEW015 BKN033 07/04 Q1027
09:50
V
8 °C 10 km+ 3,200 ft 200° 200° 3 kt METAR EGPE 030950Z 20003KT 150V240 9999 -SHRA FEW015 BKN032 08/04 Q1027
09:20
V
7 °C 10 km+ 3,400 ft 240° 240° 3 kt METAR EGPE 030920Z 24003KT 180V280 9999 FEW020 BKN034 07/04 Q1027
08:50
V
6 °C 10 km+ 3,700 ft Var 000° 0 kt METAR EGPE 030850Z 00000KT 9999 FEW030 BKN037 06/04 Q1028
08:20
V
6 °C 10 km+ 3,800 ft 070° 070° 1 kt METAR EGPE 030820Z 07001KT 9999 FEW030 BKN038 06/04 Q1028
07:50
V
6 °C 10 km+ 3,900 ft Var 000° 0 kt METAR EGPE 030750Z 00000KT 9999 FEW025 BKN039 06/04 Q1028
07:20
V
6 °C 10 km+ 4,200 ft 220° 220° 1 kt METAR EGPE 030720Z 22001KT 9999 BKN042 06/04 Q1028
06:50
V
6 °C 10 km+ 4,000 ft Var 000° 0 kt METAR EGPE 030650Z 00000KT 9999 BKN040 06/05 Q1028
06:20
V
6 °C 10 km+ 4,000 ft Var Var 1 kt METAR EGPE 030620Z VRB01KT 9999 BKN040 06/05 Q1028
05:20
V
6 °C 10 km+ 4,500 ft Var Var 1 kt METAR EGPE 030520Z VRB01KT 9999 OVC045 06/05 Q1028
04:50
V
6 °C 10 km+ 4,000 ft Var 000° 0 kt METAR EGPE 030450Z 00000KT 9999 OVC040 06/05 Q1029
04:20
V
6 °C 10 km+ 4,500 ft Var Var 1 kt METAR EGPE 030420Z VRB01KT 9999 OVC045 06/05 Q1029
03:50
V
6 °C 10 km+ 4,500 ft 250° 250° 1 kt METAR EGPE 030350Z 25001KT 9999 OVC045 06/05 Q1029
03:20
V
6 °C 10 km+ 4,500 ft Var 000° 0 kt METAR EGPE 030320Z 00000KT 9999 OVC045 06/05 Q1029
02:50
V
6 °C 10 km+ 4,500 ft 060° 060° 1 kt METAR EGPE 030250Z 06001KT 9999 OVC045 06/05 Q1029
02:20
V
6 °C 10 km+ 4,500 ft 080° 080° 1 kt METAR EGPE 030220Z 08001KT 9999 OVC045 06/05 Q1029
01:50
V
5 °C 10 km+ 4,300 ft Var 000° 0 kt METAR EGPE 030150Z AUTO 00000KT 9999 OVC043/// 05/04 Q1029
01:20
V
5 °C 10 km+ 4,400 ft 150° 150° 1 kt METAR EGPE 030120Z AUTO 15001KT 9999 OVC044/// 05/05 Q1030
00:50
V
5 °C 10 km+ 4,700 ft Var 000° 0 kt METAR EGPE 030050Z AUTO 00000KT 9999 OVC047/// 05/05 Q1030
00:20
V
5 °C 10 km+ - Var Var 1 kt METAR EGPE 030020Z AUTO VRB01KT 9999 NCD 05/04 Q1030

December 2, 2022

Time Code Weather Temp. Visibility Ceiling Wind METAR/SPECI
23:50
V
5 °C 10 km+ 4,900 ft 150° 150° 1 kt METAR EGPE 022350Z AUTO 15001KT 9999 BKN049/// 05/04 Q1030
23:20
V
5 °C 10 km+ - Var 000° 0 kt METAR EGPE 022320Z AUTO 00000KT 9999 FEW039/// 05/04 Q1030
22:50
V
5 °C 10 km+ - 010° 010° 1 kt METAR EGPE 022250Z AUTO 01001KT 9999 FEW036/// SCT044/// 05/04 Q1030
22:20
V
5 °C 10 km+ - 050° 050° 3 kt METAR EGPE 022220Z AUTO 05003KT 9999 NCD 05/04 Q1030
21:50
V
6 °C 10 km+ - Var 000° 0 kt METAR EGPE 022150Z AUTO 00000KT 9999 NCD 06/05 Q1030
21:20
V
7 °C 10 km+ - Var Var 1 kt METAR EGPE 022120Z VRB01KT 9999 FEW030 SCT046 07/05 Q1030
20:50
V
7 °C 10 km+ - 230° 230° 3 kt METAR EGPE 022050Z 23003KT 9999 FEW030 SCT047 07/05 Q1030
20:20
V
7 °C 10 km+ - 260° 260° 3 kt METAR EGPE 022020Z 26003KT 9999 FEW030 07/04 Q1029
19:50
V
8 °C 10 km+ - 200° 200° 3 kt METAR EGPE 021950Z 20003KT 9999 FEW030 08/05 Q1029
19:20
V
8 °C 10 km+ - 190° 190° 5 kt METAR EGPE 021920Z 19005KT 9999 FEW030 08/05 Q1029
18:50
V
8 °C 10 km+ - 190° 190° 5 kt METAR EGPE 021850Z 19005KT 9999 FEW030 08/05 Q1029
18:20
V
6 °C 10 km+ - Var 000° 0 kt METAR EGPE 021820Z 00000KT 9999 FEW035 06/04 Q1029
17:50
V
7 °C 10 km+ - Var Var 2 kt METAR EGPE 021750Z VRB02KT 9999 FEW040 07/05 Q1029
17:20
V
8 °C 10 km+ - 190° 190° 4 kt METAR EGPE 021720Z 19004KT 9999 FEW025 SCT048 08/05 Q1029
16:50
V
8 °C 10 km+ - 260° 260° 3 kt METAR EGPE 021650Z 26003KT 9999 FEW025 SCT048 08/05 Q1028
16:20
V
9 °C 10 km+ - 210° 210° 4 kt METAR EGPE 021620Z 21004KT 9999 FEW025 SCT045 09/05 Q1028
15:50
V
8 °C 10 km+ - 200° 200° 3 kt METAR EGPE 021550Z 20003KT 160V220 9999 FEW030 08/05 Q1028
15:20
V
7 °C 10 km+ - Var Var 1 kt METAR EGPE 021520Z VRB01KT 9999 FEW030 07/05 Q1028
14:50
V
9 °C 10 km+ - 140° 140° 2 kt METAR EGPE 021450Z 14002KT 9999 FEW030 09/05 Q1027
14:20
V
8 °C 10 km+ - Var Var 2 kt METAR EGPE 021420Z VRB02KT 9999 FEW030 08/06 Q1027
13:50
V
7 °C 10 km+ - Var Var 1 kt METAR EGPE 021350Z VRB01KT 9999 FEW030 07/06 Q1027
13:20
V
7 °C 10 km+ - 090° 090° 1 kt METAR EGPE 021320Z 09001KT 9999 FEW030 07/06 Q1027
12:50
V
7 °C 10 km+ - Var Var 1 kt METAR EGPE 021250Z VRB01KT 9999 FEW040 07/06 Q1027
12:20
V
8 °C 10 km+ - Var 000° 0 kt METAR EGPE 021220Z 00000KT 9999 FEW040 08/06 Q1027
11:50
V
7 °C 10 km+ - Var 000° 0 kt METAR EGPE 021150Z 00000KT 9999 FEW040 07/06 Q1027
11:20
V
7 °C 10 km+ - Var 000° 0 kt METAR EGPE 021120Z 00000KT 9999 FEW040 07/06 Q1027
10:50
V
7 °C 10 km+ - Var 000° 0 kt METAR EGPE 021050Z 00000KT 9999 FEW040 07/06 Q1027
10:20
V
7 °C 10 km+ - Var Var 1 kt METAR EGPE 021020Z VRB01KT 9999 SCT049 07/06 Q1027
09:50
V
8 °C 10 km+ - Var Var 1 kt METAR EGPE 020950Z VRB01KT 9999 SCT049 08/06 Q1026
09:20
V
8 °C 10 km+ - Var Var 2 kt METAR EGPE 020920Z VRB02KT 9999 SCT036 08/06 Q1026
08:50
V
9 °C 10 km+ - Var Var 2 kt METAR EGPE 020850Z VRB02KT 9999 SCT030 09/06 Q1026
08:20
V
9 °C 10 km+ 3,000 ft 220° 220° 2 kt METAR EGPE 020820Z 22002KT 9999 BKN030 09/06 Q1026
07:50
V
9 °C 10 km+ 3,000 ft 190° 190° 5 kt METAR EGPE 020750Z 19005KT 9999 BKN030 09/06 Q1025
07:20
M
9 °C 10 km+ 2,600 ft 170° 170° 5 kt METAR EGPE 020720Z 17005KT 9999 BKN026 09/07 Q1025
06:50
M
9 °C 10 km+ 2,600 ft 190° 190° 3 kt METAR EGPE 020650Z 19003KT 9999 BKN026 09/06 Q1025
06:20
M
8 °C 10 km+ 2,800 ft 220° 220° 2 kt METAR EGPE 020620Z 22002KT 9999 BKN028 08/06 Q1025
05:50
V
7 °C 10 km+ 3,000 ft Var Var 1 kt METAR EGPE 020550Z VRB01KT 9999 BKN030 07/06 Q1024
04:50
V
8 °C 10 km+ 3,000 ft 090° 090° 1 kt METAR EGPE 020450Z 09001KT 9999 BKN030 08/06 Q1024
04:20
V
8 °C 10 km+ 3,000 ft Var 000° 0 kt METAR EGPE 020420Z 00000KT 9999 BKN030 08/06 Q1024
03:50
V
8 °C 10 km+ 3,600 ft Var Var 2 kt METAR EGPE 020350Z AUTO VRB02KT 9999 BKN036/// 08/06 Q1024
03:20
V
8 °C 10 km+ 3,600 ft 160° 160° 2 kt METAR EGPE 020320Z AUTO 16002KT 9999 OVC036/// 08/07 Q1024
02:50
V
9 °C 10 km+ 3,500 ft 160° 160° 3 kt METAR EGPE 020250Z AUTO 16003KT 9999 OVC035/// 09/07 Q1024
02:20
V
9 °C 10 km+ 3,200 ft 130° 130° 2 kt METAR EGPE 020220Z AUTO 13002KT 9999 OVC032/// 09/07 Q1024
01:50
V
9 °C 10 km+ 3,400 ft 180° 180° 2 kt METAR EGPE 020150Z AUTO 18002KT 9999 BKN034/// OVC040/// 09/07 Q1024
01:20
V
9 °C 10 km+ 3,100 ft Var Var 2 kt METAR EGPE 020120Z AUTO VRB02KT 9999 OVC031/// 09/07 Q1024
00:50
V
9 °C 10 km+ 3,000 ft Var Var 2 kt METAR EGPE 020050Z AUTO VRB02KT 9999 BKN030/// 09/07 Q1024
00:20
V
9 °C 10 km+ - 190° 190° 7 kt METAR EGPE 020020Z AUTO 19007KT 9999 NCD 09/07 Q1024

December 1, 2022

Time Code Weather Temp. Visibility Ceiling Wind METAR/SPECI
23:50
V
8 °C 10 km+ - 210° 210° 3 kt METAR EGPE 012350Z AUTO 21003KT 180V260 9999 NCD 08/06 Q1024
23:20
V
8 °C 10 km+ - 230° 230° 4 kt METAR EGPE 012320Z AUTO 23004KT 9999 FEW028/// 08/06 Q1024
22:50
V
8 °C 10 km+ - 210° 210° 4 kt METAR EGPE 012250Z AUTO 21004KT 9999 NCD 08/06 Q1024
22:20
V
8 °C 10 km+ - 230° 230° 3 kt METAR EGPE 012220Z AUTO 23003KT 9999 NCD 08/07 Q1024
21:50
V
9 °C 10 km+ - 190° 190° 3 kt METAR EGPE 012150Z AUTO 19003KT 9999 NCD 09/07 Q1024
21:20
V
9 °C 10 km+ - 180° 180° 3 kt METAR EGPE 012120Z AUTO 18003KT 9999 NCD 09/07 Q1024
20:50
V
9 °C 10 km+ - 220° 220° 6 kt METAR EGPE 012050Z 22006KT 9999 -RA FEW010 SCT040 09/08 Q1024
20:20
V
10 °C 10 km+ - 210° 210° 5 kt METAR EGPE 012020Z 21005KT 9999 FEW010 SCT040 10/08 Q1024
19:50
V
10 °C 10 km+ 4,000 ft 240° 240° 3 kt METAR EGPE 011950Z 24003KT 200V330 9999 FEW010 BKN040 10/08 Q1024
19:20
V
9 °C 10 km+ 3,900 ft Var Var 1 kt METAR EGPE 011920Z VRB01KT 9999 FEW010 BKN039 09/08 Q1024
18:50
V
9 °C 10 km+ 3,900 ft 220° 220° 1 kt METAR EGPE 011850Z 22001KT 9999 FEW010 BKN039 09/08 Q1024
18:20
V
8 °C 10 km+ 3,700 ft 200° 200° 2 kt METAR EGPE 011820Z 20002KT 9999 FEW010 BKN037 08/07 Q1024
17:50
V
8 °C 10 km+ 3,800 ft 190° 190° 2 kt METAR EGPE 011750Z 19002KT 9999 FEW010 BKN038 08/07 Q1024
17:20
V
9 °C 10 km+ 3,200 ft Var Var 1 kt METAR EGPE 011720Z VRB01KT 9999 FEW010 BKN032 09/08 Q1024
16:50
V
9 °C 10 km+ - 080° 080° 2 kt METAR EGPE 011650Z 08002KT 9999 FEW010 SCT035 09/08 Q1024
16:20
V
9 °C 10 km+ - Var Var 2 kt METAR EGPE 011620Z VRB02KT 9999 FEW010 SCT038 09/08 Q1023
15:50
V
9 °C 10 km+ - Var 000° 0 kt METAR EGPE 011550Z 00000KT 9999 FEW010 SCT042 09/08 Q1023
15:20
V
9 °C 10 km+ - Var Var 1 kt METAR EGPE 011520Z VRB01KT 9999 FEW010 SCT030 09/08 Q1023
14:50
V
10 °C 10 km+ - Var Var 1 kt METAR EGPE 011450Z VRB01KT 9999 -RA FEW007 SCT044 10/08 Q1023
14:20
V
10 °C 10 km+ - Var Var 1 kt METAR EGPE 011420Z VRB01KT 9999 -RA FEW008 SCT030 10/08 Q1023
13:50
V
11 °C 10 km+ - 200° 200° 3 kt METAR EGPE 011350Z 20003KT 150V250 9999 -RA FEW008 SCT035 11/09 Q1023
13:20
V
11 °C 10 km+ - Var Var 1 kt METAR EGPE 011320Z VRB01KT 9999 FEW008 SCT040 11/09 Q1023
12:50
V
11 °C 10 km+ - 210° 210° 3 kt METAR EGPE 011250Z 21003KT 9999 VCSH FEW012 SCT042 11/09 Q1023
12:20
V
11 °C 10 km+ - 220° 220° 3 kt METAR EGPE 011220Z 22003KT 9999 VCSH FEW012 SCT042 11/09 Q1023
11:50
V
10 °C 10 km+ - Var Var 3 kt METAR EGPE 011150Z VRB03KT 9999 FEW015 SCT042 10/08 Q1023
11:20
V
10 °C 10 km+ - 220° 220° 5 kt METAR EGPE 011120Z 22005KT 9999 FEW015 SCT038 10/09 Q1024
10:50
V
9 °C 10 km+ - 090° 090° 1 kt METAR EGPE 011050Z 09001KT 9999 FEW015 SCT032 09/08 Q1024
10:20
V
8 °C 10 km+ - 080° 080° 2 kt METAR EGPE 011020Z 08002KT 9999 FEW015 SCT047 08/07 Q1024
09:50
V
8 °C 10 km+ - Var 000° 0 kt METAR EGPE 010950Z 00000KT 9999 FEW012 SCT049 08/07 Q1024

We and third parties follow your internet behavior on our website with cookies. If you continue, we assume you agree with our cookie policy.